Time;durP1;ratioP1;P1;durP2;ratioP2;P2;SDS_P1;SDS_P2;PMS_P1;PMS_P2;Temp;Humidity;BMP_temperature;BMP_pressure;BME280_temperature;BME280_humidity;BME280_pressure;Samples;Min_cycle;Max_cycle;Signal;HPM_P1;HPM_P2
2022/05/14 00:00:18;;;;;;;5.75;1.80;;;;;;;9.65;55.12;98614.22;5050095;28;20469;-56
2022/05/14 00:02:43;;;;;;;6.38;1.70;;;;;;;9.55;55.33;98607.06;5033593;28;20033;-52
2022/05/14 00:05:09;;;;;;;4.10;1.50;;;;;;;9.56;55.51;98619.44;5033772;28;20029;-53
2022/05/14 00:07:36;;;;;;;7.93;1.83;;;;;;;9.54;55.56;98618.75;5042114;28;20040;-55
2022/05/14 00:10:02;;;;;;;7.30;1.83;;;;;;;9.59;55.65;98618.31;5033446;28;20030;-55
2022/05/14 00:15:12;;;;;;;8.20;1.77;;;;;;;9.47;55.56;98604.28;5033446;28;20038;-55
2022/05/14 00:17:37;;;;;;;3.72;1.60;;;;;;;9.50;55.70;98613.84;5033011;28;20135;-58
2022/05/14 00:20:03;;;;;;;3.50;1.90;;;;;;;9.46;56.31;98627.47;5043936;28;20389;-56
2022/05/14 00:22:28;;;;;;;4.25;1.77;;;;;;;9.43;56.08;98624.28;5032960;28;20025;-57
2022/05/14 00:24:54;;;;;;;5.20;1.67;;;;;;;9.38;56.08;98619.38;5033892;28;20056;-55
2022/05/14 00:27:22;;;;;;;5.40;1.70;;;;;;;9.36;56.53;98618.69;5033259;28;20373;-56
2022/05/14 00:29:48;;;;;;;7.07;1.80;;;;;;;9.34;56.31;98621.47;5033161;28;20124;-55
2022/05/14 00:32:13;;;;;;;9.23;1.83;;;;;;;9.28;56.14;98624.75;5033037;28;20117;-57
2022/05/14 00:34:39;;;;;;;2.25;1.35;;;;;;;9.30;56.32;98616.59;5034387;28;20060;-56
2022/05/14 00:37:04;;;;;;;3.38;1.58;;;;;;;9.31;56.48;98616.44;5052489;28;20130;-53
2022/05/14 00:39:30;;;;;;;7.53;1.30;;;;;;;9.26;56.36;98610.69;5051625;28;20029;-55
2022/05/14 00:41:55;;;;;;;3.35;1.40;;;;;;;9.27;56.76;98614.19;5052960;28;20507;-55
2022/05/14 00:44:20;;;;;;;5.32;1.60;;;;;;;9.24;56.85;98620.69;5052672;28;20416;-54
2022/05/14 00:46:59;;;;;;;5.93;1.35;;;;;;;9.22;56.68;98620.00;5052692;28;20052;-55
2022/05/14 00:49:25;;;;;;;4.18;1.65;;;;;;;9.27;56.54;98620.38;5048921;28;20044;-55
2022/05/14 00:51:51;;;;;;;5.88;1.52;;;;;;;9.19;56.75;98617.63;5032485;28;20477;-53
2022/05/14 00:54:25;;;;;;;5.00;1.50;;;;;;;9.25;56.73;98617.03;5032675;28;20154;-52
2022/05/14 00:56:56;;;;;;;4.00;1.30;;;;;;;9.17;56.87;98606.22;5041042;28;20087;-54
2022/05/14 00:59:25;;;;;;;6.25;1.60;;;;;;;9.19;56.75;98612.28;5052472;28;20534;-58
2022/05/14 01:01:50;;;;;;;3.80;1.30;;;;;;;9.16;56.79;98609.88;5052233;28;20029;-56
2022/05/14 01:04:18;;;;;;;5.75;1.88;;;;;;;9.22;56.88;98617.31;5046202;28;20056;-56
2022/05/14 01:07:07;;;;;;;7.35;1.50;;;;;;;9.27;56.64;98601.69;5032472;28;20117;-56
2022/05/14 01:09:37;;;;;;;2.72;1.33;;;;;;;9.29;56.17;98613.06;5032176;28;20103;-56
2022/05/14 01:12:04;;;;;;;5.60;1.40;;;;;;;9.23;56.64;98607.47;5032398;28;20474;-58
2022/05/14 01:14:29;;;;;;;4.13;1.50;;;;;;;9.19;56.97;98604.25;5037531;28;20493;-55
2022/05/14 01:16:55;;;;;;;2.60;1.50;;;;;;;9.16;56.72;98593.84;5052163;28;20116;-58
2022/05/14 01:19:20;;;;;;;8.75;1.40;;;;;;;9.15;56.96;98595.69;5041023;28;20098;-55
2022/05/14 01:22:04;;;;;;;5.03;1.92;;;;;;;9.21;57.08;98606.78;5032555;28;20029;-55
2022/05/14 01:27:29;;;;;;;6.35;1.45;;;;;;;9.19;56.87;98601.59;5031860;28;20169;-56
2022/05/14 01:29:55;;;;;;;6.85;1.75;;;;;;;9.09;56.98;98563.38;5014056;28;20140;-55
2022/05/14 01:32:20;;;;;;;5.53;1.50;;;;;;;9.24;56.92;98595.78;5032203;28;20037;-56
2022/05/14 01:34:46;;;;;;;6.43;1.63;;;;;;;9.22;56.90;98601.28;5050434;28;20029;-59
2022/05/14 01:37:11;;;;;;;6.10;1.52;;;;;;;9.22;57.15;98589.75;5034000;28;20040;-58
2022/05/14 01:39:37;;;;;;;8.07;1.45;;;;;;;9.27;57.10;98595.50;5051627;28;20029;-56
2022/05/14 01:42:04;;;;;;;4.35;1.38;;;;;;;9.26;57.03;98592.00;5049993;28;20025;-54
2022/05/14 01:44:29;;;;;;;4.65;1.80;;;;;;;9.32;57.14;98598.59;5035183;28;20385;-55
2022/05/14 01:46:55;;;;;;;5.20;1.58;;;;;;;9.36;56.59;98604.47;5031352;28;20036;-56
2022/05/14 01:49:21;;;;;;;2.75;1.25;;;;;;;9.39;56.85;98601.50;5030752;28;20453;-58
2022/05/14 01:51:47;;;;;;;3.22;1.25;;;;;;;9.43;57.00;98598.41;5036448;28;20032;-54
2022/05/14 01:54:12;;;;;;;4.18;1.55;;;;;;;9.49;56.36;98596.97;5051601;28;20041;-57
2022/05/14 01:56:38;;;;;;;5.47;1.38;;;;;;;9.53;56.20;98598.34;5051381;28;20033;-56
2022/05/14 01:59:04;;;;;;;4.60;1.20;;;;;;;9.53;56.31;98593.00;5037861;28;20389;-58
2022/05/14 02:01:36;;;;;;;4.18;1.40;;;;;;;9.68;56.07;98600.56;5031431;28;20033;-56
2022/05/14 02:04:04;;;;;;;4.90;1.52;;;;;;;9.73;55.81;98600.94;5031618;28;20124;-54
2022/05/14 02:06:31;;;;;;;4.35;1.40;;;;;;;9.78;55.67;98604.00;5013640;28;20369;-55
2022/05/14 02:08:58;;;;;;;3.80;1.40;;;;;;;9.80;55.89;98594.00;5031177;28;20150;-56
2022/05/14 02:11:24;;;;;;;8.23;1.40;;;;;;;9.93;55.40;98603.50;5031364;28;20491;-51
2022/05/14 02:13:51;;;;;;;5.70;1.20;;;;;;;9.99;55.21;98613.59;5013665;28;20051;-56
2022/05/14 02:16:17;;;;;;;3.00;1.27;;;;;;;10.10;55.46;98609.88;5031780;28;20025;-52
2022/05/14 02:18:43;;;;;;;2.85;1.60;;;;;;;10.22;54.89;98607.81;5050853;28;20086;-57
2022/05/14 02:21:10;;;;;;;4.13;1.10;;;;;;;10.34;54.62;98610.13;5050803;28;20202;-57
2022/05/14 02:23:38;;;;;;;4.20;1.23;;;;;;;10.31;54.22;98578.31;5050975;28;20040;-56
2022/05/14 02:26:10;;;;;;;5.63;1.40;;;;;;;10.60;53.95;98606.69;5034292;28;20040;-54
2022/05/14 02:28:37;;;;;;;1.75;1.30;;;;;;;10.65;53.25;98605.41;5030704;28;20049;-56
2022/05/14 02:31:03;;;;;;;3.13;1.27;;;;;;;10.75;53.18;98609.66;5037312;28;20040;-55
2022/05/14 02:33:29;;;;;;;4.78;1.30;;;;;;;10.82;53.02;98603.69;5050956;28;20053;-53
2022/05/14 02:35:55;;;;;;;7.93;1.33;;;;;;;10.83;52.57;98602.69;5041951;28;20466;-56
2022/05/14 02:38:21;;;;;;;3.40;1.15;;;;;;;10.96;52.43;98605.81;5031335;28;20032;-53
2022/05/14 02:40:47;;;;;;;5.43;1.33;;;;;;;10.97;52.08;98618.19;5031505;28;20041;-56
2022/05/14 02:43:13;;;;;;;1.60;1.13;;;;;;;10.97;52.50;98612.84;5050738;28;20044;-53
2022/05/14 02:45:38;;;;;;;4.88;1.27;;;;;;;10.99;52.30;98610.84;5051095;28;20455;-56
2022/05/14 02:48:04;;;;;;;5.60;1.40;;;;;;;11.11;52.50;98610.59;5050944;28;20031;-57
2022/05/14 02:50:30;;;;;;;4.38;1.40;;;;;;;11.17;51.90;98609.97;5050602;28;20032;-56
2022/05/14 02:52:56;;;;;;;2.17;1.15;;;;;;;11.21;51.84;98608.66;5050912;28;20453;-55
2022/05/14 02:55:22;;;;;;;4.43;1.70;;;;;;;11.25;52.11;98612.69;5036258;28;20057;-57
2022/05/14 02:57:47;;;;;;;4.82;1.30;;;;;;;11.35;51.57;98617.94;5030772;28;20038;-52
2022/05/14 03:00:16;;;;;;;4.35;1.50;;;;;;;11.48;51.54;98615.69;5030744;28;20033;-55
2022/05/14 03:02:42;;;;;;;6.43;1.40;;;;;;;11.54;51.17;98611.50;5034506;28;20531;-57
2022/05/14 03:05:09;;;;;;;5.25;1.50;;;;;;;11.64;50.76;98608.69;5046079;28;20032;-54
2022/05/14 03:07:35;;;;;;;3.70;1.30;;;;;;;11.67;50.56;98605.69;5054709;28;20032;-56
2022/05/14 03:10:01;;;;;;;4.65;1.23;;;;;;;11.77;50.97;98618.97;5054742;28;20040;-54
2022/05/14 03:12:26;;;;;;;5.65;1.45;;;;;;;11.85;50.49;98616.34;5034896;28;20370;-56
2022/05/14 03:14:52;;;;;;;4.93;1.50;;;;;;;11.97;49.81;98610.66;5034721;28;20041;-56
2022/05/14 03:17:18;;;;;;;3.33;1.10;;;;;;;12.08;49.87;98612.25;5034505;28;20029;-57
2022/05/14 03:19:44;;;;;;;4.40;1.40;;;;;;;12.15;49.28;98611.44;5045283;28;20107;-53
2022/05/14 03:22:10;;;;;;;3.10;1.10;;;;;;;12.37;49.02;98619.00;5053979;28;20064;-59
2022/05/14 03:24:36;;;;;;;3.88;1.20;;;;;;;12.57;48.59;98622.25;5054271;28;20032;-57
2022/05/14 03:27:06;;;;;;;4.85;1.52;;;;;;;12.99;47.89;98615.84;5054116;28;20037;-56
2022/05/14 03:29:33;;;;;;;6.97;1.20;;;;;;;13.56;46.00;98615.91;5054207;28;20114;-58
2022/05/14 03:31:59;;;;;;;4.03;1.30;;;;;;;14.18;44.74;98604.38;5037746;28;20033;-57
2022/05/14 03:34:25;;;;;;;6.05;0.88;;;;;;;15.13;42.33;98619.50;5034388;28;20480;-54
2022/05/14 03:36:51;;;;;;;5.90;1.20;;;;;;;15.84;40.91;98616.38;5034366;28;20459;-54
2022/05/14 03:39:17;;;;;;;5.80;1.20;;;;;;;16.62;38.62;98596.91;5033958;28;20037;-60
2022/05/14 03:41:43;;;;;;;2.70;0.80;;;;;;;17.81;36.60;98614.41;5038058;28;20110;-54
2022/05/14 03:44:09;;;;;;;4.15;1.20;;;;;;;18.67;34.85;98610.34;5050354;28;20053;-58
2022/05/14 03:46:35;;;;;;;3.63;1.00;;;;;;;19.39;33.02;98587.19;5033814;28;20114;-57
2022/05/14 03:49:00;;;;;;;4.85;0.90;;;;;;;20.38;31.88;98611.47;5035818;28;20596;-57
2022/05/14 03:51:27;;;;;;;5.18;1.30;;;;;;;21.05;30.50;98594.72;5054365;28;20108;-55
2022/05/14 03:53:52;;;;;;;3.15;0.88;;;;;;;21.42;29.76;98625.78;5054000;28;20350;-57
2022/05/14 03:56:18;;;;;;;6.28;0.82;;;;;;;21.74;29.01;98607.44;5035984;28;20029;-59
2022/05/14 03:58:43;;;;;;;4.05;1.15;;;;;;;22.67;27.67;98619.28;5053964;28;20151;-57
2022/05/14 04:01:09;;;;;;;2.28;1.00;;;;;;;23.23;26.83;98611.66;5051950;28;20404;-58
2022/05/14 04:03:35;;;;;;;3.45;0.73;;;;;;;23.53;26.05;98615.38;5053484;28;20106;-58
2022/05/14 04:06:05;;;;;;;3.40;0.85;;;;;;;23.55;26.77;98614.06;5052756;28;20037;-56
2022/05/14 04:08:30;;;;;;;1.75;0.70;;;;;;;23.49;25.53;98613.09;5033653;28;20033;-58
2022/05/14 04:10:56;;;;;;;4.25;0.90;;;;;;;23.68;25.74;98615.69;5033690;28;20021;-54
2022/05/14 04:13:21;;;;;;;3.70;0.98;;;;;;;24.59;24.52;98602.47;5032428;28;20458;-57
2022/05/14 04:15:48;;;;;;;2.35;0.90;;;;;;;25.97;22.66;98615.00;5033117;28;20259;-57
2022/05/14 04:18:13;;;;;;;3.25;0.80;;;;;;;26.86;21.51;98607.50;5033221;28;20408;-55
2022/05/14 04:20:40;;;;;;;3.28;0.75;;;;;;;28.00;20.59;98610.19;5033009;28;20116;-55
2022/05/14 04:23:06;;;;;;;3.13;1.00;;;;;;;28.98;19.37;98604.91;5033157;28;20039;-57
2022/05/14 04:25:33;;;;;;;3.10;0.82;;;;;;;29.40;18.34;98613.13;5039470;28;20411;-57
2022/05/14 04:27:59;;;;;;;2.88;1.00;;;;;;;29.91;17.93;98598.41;5053386;28;20078;-58
2022/05/14 04:30:25;;;;;;;1.38;0.80;;;;;;;30.51;17.46;98600.34;5052593;28;20122;-56
2022/05/14 04:32:51;;;;;;;4.68;0.98;;;;;;;31.17;16.39;98594.59;5035116;28;20073;-55
2022/05/14 04:35:17;;;;;;;3.40;0.90;;;;;;;31.55;16.32;98600.31;5032897;28;20064;-58
2022/05/14 04:37:42;;;;;;;2.30;0.98;;;;;;;32.19;15.74;98597.34;5032884;28;20120;-59
2022/05/14 04:40:09;;;;;;;1.05;0.55;;;;;;;32.73;15.29;98599.91;5034098;28;20087;-60
2022/05/14 04:42:39;;;;;;;3.20;0.90;;;;;;;33.09;14.51;98592.16;5032763;28;20457;-59
2022/05/14 04:45:09;;;;;;;1.77;0.85;;;;;;;33.49;15.04;98595.31;5045783;28;20096;-61
2022/05/14 04:47:36;;;;;;;2.67;1.05;;;;;;;33.60;14.22;98593.19;5052502;28;20135;-58
2022/05/14 04:50:02;;;;;;;2.95;0.55;;;;;;;33.30;14.39;98590.66;5050974;28;20503;-57
2022/05/14 04:52:29;;;;;;;2.80;0.77;;;;;;;32.62;14.56;98590.13;5052559;28;20086;-60
2022/05/14 04:54:54;;;;;;;1.15;0.80;;;;;;;32.61;14.96;98580.97;5052390;28;20033;-59
2022/05/14 04:57:19;;;;;;;2.97;0.90;;;;;;;33.14;14.48;98589.28;5036933;28;20152;-60
2022/05/14 04:59:45;;;;;;;2.85;0.80;;;;;;;33.83;13.75;98593.28;5032134;28;20061;-60
2022/05/14 05:04:54;;;;;;;2.55;0.60;;;;;;;34.85;12.82;98594.13;5033408;28;20032;-59
2022/05/14 05:07:20;;;;;;;2.20;0.55;;;;;;;35.25;12.83;98594.25;5033431;28;20132;-61
2022/05/14 05:09:46;;;;;;;1.65;0.60;;;;;;;35.32;12.40;98574.28;5032414;28;20350;-60
2022/05/14 05:12:11;;;;;;;2.55;0.75;;;;;;;35.25;12.39;98583.09;5032392;28;20032;-61
2022/05/14 05:14:37;;;;;;;1.80;0.82;;;;;;;35.02;12.14;98580.38;5032586;28;20052;-61
2022/05/14 05:17:03;;;;;;;1.38;0.80;;;;;;;35.16;12.75;98585.00;5032490;28;20026;-59
2022/05/14 05:19:29;;;;;;;1.38;0.73;;;;;;;35.52;11.95;98581.28;5032426;28;20040;-61
2022/05/14 05:21:54;;;;;;;2.08;0.88;;;;;;;35.88;11.80;98582.22;5032137;28;20030;-60
2022/05/14 05:24:19;;;;;;;2.58;0.90;;;;;;;36.55;11.69;98579.41;5043422;28;20041;-60
2022/05/14 05:26:45;;;;;;;3.95;0.90;;;;;;;37.22;11.14;98580.00;5051748;28;20465;-60
2022/05/14 05:29:11;;;;;;;3.40;0.80;;;;;;;37.99;10.05;98576.41;5050524;28;20033;-59
2022/05/14 05:31:39;;;;;;;2.35;0.70;;;;;;;38.57;9.50;98580.59;5032086;28;20057;-59
2022/05/14 05:34:05;;;;;;;4.00;1.08;;;;;;;39.40;9.15;98582.78;5040332;28;20050;-60
2022/05/14 05:36:30;;;;;;;3.47;1.00;;;;;;;39.88;9.00;98566.34;5052284;28;20037;-61
2022/05/14 05:38:56;;;;;;;2.40;0.82;;;;;;;39.41;9.20;98576.00;5051927;28;20112;-60
2022/05/14 05:41:22;;;;;;;1.42;0.77;;;;;;;38.53;9.29;98582.44;5033924;28;20147;-58
2022/05/14 05:43:48;;;;;;;1.45;0.60;;;;;;;36.33;10.89;98581.19;5033555;28;20026;-60
2022/05/14 05:46:14;;;;;;;1.45;0.70;;;;;;;34.12;12.49;98581.03;5031788;28;20083;-59
2022/05/14 05:48:42;;;;;;;1.67;0.60;;;;;;;32.92;13.38;98576.91;5037866;28;20033;-59
2022/05/14 05:51:07;;;;;;;3.22;0.75;;;;;;;33.67;13.10;98573.34;5051659;28;20032;-59
2022/05/14 05:59:03;;;;;;;0.90;0.50;;;;;;;39.18;8.66;98580.00;5031616;28;20033;-60
2022/05/14 06:01:28;;;;;;;1.13;0.60;;;;;;;40.18;8.15;98557.66;5040693;28;20043;-61
2022/05/14 06:03:54;;;;;;;1.17;0.60;;;;;;;40.84;7.59;98566.00;5051450;28;20029;-60
2022/05/14 06:06:19;;;;;;;1.30;0.60;;;;;;;40.66;7.79;98560.66;5051154;28;20044;-59
2022/05/14 06:08:47;;;;;;;0.70;0.70;;;;;;;41.11;7.27;98569.91;5039366;28;20033;-59
2022/05/14 06:11:13;;;;;;;2.42;0.77;;;;;;;41.21;6.65;98565.00;5031183;28;20025;-59
2022/05/14 06:13:39;;;;;;;1.70;0.70;;;;;;;41.32;7.21;98552.03;5031122;28;20143;-61
2022/05/14 06:16:05;;;;;;;4.47;0.90;;;;;;;40.68;7.39;98560.31;5031187;28;20029;-57
2022/05/14 06:18:30;;;;;;;1.50;0.60;;;;;;;41.02;7.26;98564.50;5034491;28;20040;-61
2022/05/14 06:20:56;;;;;;;1.63;0.60;;;;;;;41.84;6.79;98554.91;5050597;28;20045;-60
2022/05/14 06:23:21;;;;;;;2.33;0.77;;;;;;;43.09;5.88;98557.94;5050934;28;20032;-59
2022/05/14 06:25:46;;;;;;;1.48;0.98;;;;;;;44.27;5.25;98551.78;5050560;28;20033;-60
2022/05/14 06:28:12;;;;;;;2.05;0.73;;;;;;;44.12;5.13;98558.41;5033094;28;20025;-60
2022/05/14 06:30:41;;;;;;;2.70;0.80;;;;;;;43.25;5.58;98552.19;5017522;28;20457;-61
2022/05/14 06:33:08;;;;;;;1.90;0.90;;;;;;;41.46;6.00;98557.19;5038438;28;20036;-61
2022/05/14 06:35:35;;;;;;;2.15;1.13;;;;;;;40.17;7.15;98556.03;5050567;28;20086;-60
2022/05/14 06:38:02;;;;;;;3.10;0.75;;;;;;;38.86;7.87;98562.09;5039840;28;20565;-60
2022/05/14 06:40:27;;;;;;;1.15;0.82;;;;;;;39.65;7.27;98551.97;5030621;28;20180;-61
2022/05/14 06:42:53;;;;;;;1.83;0.82;;;;;;;40.73;6.67;98544.06;5014289;28;20132;-59
2022/05/14 06:45:19;;;;;;;3.35;0.75;;;;;;;42.07;6.05;98535.38;5032848;28;20037;-62
2022/05/14 06:47:44;;;;;;;2.80;0.90;;;;;;;42.84;5.53;98537.75;5050075;28;20112;-61
2022/05/14 06:50:10;;;;;;;1.40;0.70;;;;;;;44.11;5.21;98537.84;5050308;28;20391;-59
2022/05/14 06:52:36;;;;;;;4.72;1.15;;;;;;;44.58;4.58;98527.19;5049002;28;20025;-59
2022/05/14 06:55:02;;;;;;;2.90;0.98;;;;;;;45.43;4.29;98536.09;5041122;28;20432;-61
2022/05/14 06:57:33;;;;;;;5.32;0.90;;;;;;;46.70;4.02;98536.00;5031290;28;20492;-59
2022/05/14 06:59:59;;;;;;;1.30;0.90;;;;;;;46.89;3.48;98540.50;5031546;28;20372;-58
2022/05/14 07:02:27;;;;;;;2.75;0.90;;;;;;;47.04;3.58;98535.66;5042537;28;20032;-60
2022/05/14 07:07:38;;;;;;;2.55;0.80;;;;;;;45.84;3.99;98506.94;5043598;28;20025;-60
2022/05/14 07:10:03;;;;;;;1.45;0.88;;;;;;;46.47;3.85;98513.66;5050398;28;20039;-60
2022/05/14 07:12:30;;;;;;;2.83;0.95;;;;;;;47.05;3.50;98513.84;5049969;28;20024;-59
2022/05/14 07:14:56;;;;;;;1.98;1.00;;;;;;;47.03;3.49;98525.56;5050445;28;20067;-59
2022/05/14 07:17:21;;;;;;;1.77;0.93;;;;;;;47.21;3.37;98517.06;5050443;28;20108;-60
2022/05/14 07:19:49;;;;;;;2.15;0.80;;;;;;;48.05;3.05;98517.81;5037605;28;20108;-60
2022/05/14 07:22:15;;;;;;;2.70;1.20;;;;;;;48.71;2.75;98516.25;5030692;28;20040;-60
2022/05/14 07:24:42;;;;;;;1.80;1.02;;;;;;;49.19;3.00;98527.34;5029759;28;20038;-58
2022/05/14 07:27:11;;;;;;;6.20;1.48;;;;;;;49.22;2.76;98524.47;5030653;28;20029;-60
2022/05/14 07:29:41;;;;;;;3.17;1.33;;;;;;;47.08;3.41;98518.69;5030605;28;20073;-60
2022/05/14 07:32:12;;;;;;;2.88;1.25;;;;;;;42.98;5.44;98523.97;5030525;28;20044;-60
2022/05/14 07:34:39;;;;;;;3.63;0.90;;;;;;;37.82;8.14;98521.44;5030639;28;20478;-61
2022/05/14 07:37:21;;;;;;;4.40;0.70;;;;;;;37.33;8.84;98519.84;5035421;28;20028;-60
2022/05/14 07:39:54;;;;;;;1.25;0.95;;;;;;;36.95;8.57;98500.28;5036162;28;20030;-61
2022/05/14 07:42:31;;;;;;;4.22;0.90;;;;;;;36.90;9.17;98527.19;5029831;28;20061;-64
2022/05/14 07:45:00;;;;;;;3.83;0.98;;;;;;;34.16;10.79;98526.53;5030027;28;20143;-59
2022/05/14 07:47:27;;;;;;;1.52;1.00;;;;;;;31.45;13.24;98529.31;5030352;28;20026;-61
2022/05/14 07:49:52;;;;;;;2.20;0.85;;;;;;;28.99;14.75;98490.84;5035082;28;20493;-62
2022/05/14 07:52:19;;;;;;;2.75;0.90;;;;;;;29.39;14.60;98520.50;5042928;28;20037;-57
2022/05/14 07:54:45;;;;;;;4.07;0.98;;;;;;;31.29;13.15;98508.53;5050986;28;20079;-62
2022/05/14 07:57:11;;;;;;;4.28;0.80;;;;;;;30.50;13.28;98500.09;5033558;28;20465;-62
2022/05/14 07:59:37;;;;;;;1.83;0.65;;;;;;;29.06;14.65;98507.91;5049845;28;20112;-64
2022/05/14 08:02:18;;;;;;;3.63;0.85;;;;;;;27.70;15.57;98519.03;5052622;28;20477;-62
2022/05/14 08:04:43;;;;;;;1.85;0.82;;;;;;;25.76;17.92;98507.84;5035146;28;20039;-61
2022/05/14 08:07:11;;;;;;;2.55;0.90;;;;;;;25.51;18.23;98511.94;5053322;28;20119;-59
2022/05/14 08:09:36;;;;;;;1.65;0.80;;;;;;;26.43;16.99;98481.13;5046894;28;20029;-57
2022/05/14 08:12:02;;;;;;;3.83;1.25;;;;;;;25.79;17.60;98501.84;5036278;28;20082;-61
2022/05/14 08:14:29;;;;;;;1.92;0.77;;;;;;;25.37;18.16;98505.97;5039287;28;20108;-60
2022/05/14 08:16:54;;;;;;;1.13;0.70;;;;;;;24.88;18.74;98501.19;5039770;28;20037;-61
2022/05/14 08:19:20;;;;;;;2.92;0.70;;;;;;;24.16;18.85;98498.88;5052670;28;20044;-62
2022/05/14 08:24:30;;;;;;;3.67;0.75;;;;;;;22.57;20.79;98505.28;5038545;28;20838;-60
2022/05/14 08:26:55;;;;;;;3.08;0.90;;;;;;;21.61;22.61;98507.63;5041204;28;20068;-57
2022/05/14 08:29:22;;;;;;;1.63;0.75;;;;;;;20.69;23.56;98513.81;5032769;28;20099;-60
2022/05/14 08:31:48;;;;;;;2.90;0.77;;;;;;;19.97;24.45;98514.91;5033969;28;20504;-59
2022/05/14 08:34:14;;;;;;;3.65;0.85;;;;;;;19.58;25.38;98504.84;5032644;28;20038;-61
2022/05/14 08:36:39;;;;;;;3.13;0.80;;;;;;;19.61;25.76;98509.00;5033114;28;20091;-57
2022/05/14 08:39:05;;;;;;;4.05;0.82;;;;;;;19.79;25.78;98502.88;5033077;28;20108;-60
2022/05/14 08:41:35;;;;;;;5.93;1.13;;;;;;;20.36;23.92;98516.53;5039408;28;20032;-60
2022/05/14 08:44:07;;;;;;;7.78;1.13;;;;;;;20.93;23.36;98513.00;5048016;28;20032;-61
2022/05/14 08:46:35;;;;;;;3.47;0.70;;;;;;;21.33;22.52;98508.16;5030897;28;20088;-61
2022/05/14 08:49:09;;;;;;;2.38;0.90;;;;;;;21.40;22.34;98503.50;5033430;28;20527;-60
2022/05/14 08:51:40;;;;;;;2.35;0.80;;;;;;;20.93;22.90;98509.41;5037564;28;20040;-60
2022/05/14 08:54:06;;;;;;;5.32;0.95;;;;;;;20.23;24.08;98517.47;5032617;28;20079;-60
2022/05/14 08:56:32;;;;;;;4.57;0.80;;;;;;;19.78;24.73;98514.81;5033443;28;20096;-61
2022/05/14 08:59:25;;;;;;;4.05;1.10;;;;;;;19.58;23.94;98494.00;5031691;28;20025;-60
2022/05/14 09:01:57;;;;;;;4.20;0.73;;;;;;;19.71;25.07;98514.81;5032191;28;20056;-57
2022/05/14 09:04:24;;;;;;;3.28;1.00;;;;;;;19.96;25.15;98505.09;5037085;28;20052;-61
2022/05/14 09:06:50;;;;;;;4.63;0.55;;;;;;;20.19;24.59;98501.84;5043296;28;20108;-61
2022/05/14 09:09:17;;;;;;;3.85;1.10;;;;;;;20.42;24.84;98505.88;5046898;28;20133;-53
2022/05/14 09:11:55;;;;;;;10.02;1.27;;;;;;;20.66;24.38;98523.22;5033300;28;20103;-57
2022/05/14 09:14:21;;;;;;;4.28;0.95;;;;;;;20.46;24.67;98507.91;5052042;28;20033;-59
2022/05/14 09:16:48;;;;;;;4.22;0.90;;;;;;;20.33;24.60;98510.75;5050938;28;20029;-61
2022/05/14 09:19:19;;;;;;;1.67;0.60;;;;;;;20.44;24.42;98503.75;5036019;28;20030;-60
2022/05/14 09:21:55;;;;;;;4.68;0.80;;;;;;;20.69;24.40;98505.66;5030847;28;20029;-60
2022/05/14 09:24:25;;;;;;;3.25;1.00;;;;;;;20.75;24.30;98502.88;5031758;28;20026;-62
2022/05/14 09:26:56;;;;;;;4.80;0.75;;;;;;;20.86;24.57;98500.50;5031779;28;20060;-60
2022/05/14 09:29:43;;;;;;;4.35;0.82;;;;;;;21.03;23.99;98498.03;5013684;28;20054;-59
2022/05/14 09:32:20;;;;;;;3.35;0.80;;;;;;;20.87;24.09;98496.72;5028217;28;20033;-62
2022/05/14 09:34:47;;;;;;;3.15;0.70;;;;;;;20.58;24.41;98497.16;5036072;28;20068;-62
2022/05/14 09:37:21;;;;;;;3.97;1.00;;;;;;;20.87;24.43;98500.28;5031916;28;20045;-61
2022/05/14 09:40:00;;;;;;;1.85;0.75;;;;;;;21.41;22.74;98458.03;5031615;28;20108;-61
2022/05/14 09:42:34;;;;;;;2.17;0.63;;;;;;;21.89;22.92;98476.28;5046083;28;20028;-62
2022/05/14 09:45:00;;;;;;;2.55;0.65;;;;;;;22.27;22.41;98473.44;5046873;28;20033;-61
2022/05/14 09:47:30;;;;;;;1.95;0.80;;;;;;;22.35;21.59;98467.63;5031947;28;20059;-61
2022/05/14 09:50:02;;;;;;;2.47;0.80;;;;;;;22.60;21.61;98469.34;5030988;28;20037;-60
2022/05/14 09:52:32;;;;;;;4.13;0.85;;;;;;;22.65;20.84;98453.09;5031623;28;20034;-56
2022/05/14 09:54:59;;;;;;;5.03;0.70;;;;;;;22.29;21.36;98472.13;5040937;28;20032;-61
2022/05/14 09:57:39;;;;;;;4.15;0.80;;;;;;;22.06;21.60;98472.91;5031277;28;20087;-63
2022/05/14 10:00:23;;;;;;;1.63;0.65;;;;;;;21.60;22.48;98486.09;5032956;28;20029;-62
2022/05/14 10:03:07;;;;;;;3.97;0.85;;;;;;;21.11;23.54;98499.63;5032089;28;20041;-61
2022/05/14 10:05:38;;;;;;;6.00;0.90;;;;;;;20.67;24.62;98489.53;5032044;28;20037;-61
2022/05/14 10:08:22;;;;;;;7.38;1.27;;;;;;;20.27;27.42;98503.47;5031018;28;20037;-61
2022/05/14 10:10:53;;;;;;;9.60;1.20;;;;;;;20.10;27.12;98501.28;5031354;28;20124;-63
2022/05/14 10:13:28;;;;;;;5.85;0.90;;;;;;;19.73;27.15;98501.88;5031254;28;20038;-61
2022/05/14 10:16:12;;;;;;;1.23;0.40;;;;;;;19.51;26.29;98493.16;5048772;28;20044;-60
2022/05/14 10:19:11;;;;;;;2.00;1.00;;;;;;;19.68;25.85;98503.56;5046335;28;20056;-61
2022/05/14 10:21:58;;;;;;;3.67;0.80;;;;;;;19.76;25.08;98497.88;5047167;28;20033;-59
2022/05/14 10:27:52;;;;;;;4.13;0.70;;;;;;;20.12;25.03;98488.31;5031447;28;20496;-61
2022/05/14 10:30:28;;;;;;;2.17;0.88;;;;;;;19.99;25.70;98462.06;5044731;28;20079;-62
2022/05/14 10:33:09;;;;;;;5.22;1.13;;;;;;;20.07;25.93;98482.69;5050720;28;20109;-65
2022/05/14 10:36:05;;;;;;;3.80;0.70;;;;;;;20.06;25.42;98483.75;5050525;28;20033;-63
2022/05/14 10:38:43;;;;;;;4.97;1.02;;;;;;;20.00;25.71;98469.16;5034701;28;20030;-59
2022/05/14 10:41:09;;;;;;;2.28;0.93;;;;;;;20.00;26.06;98452.00;5031182;28;20474;-60
2022/05/14 10:43:52;;;;;;;2.97;1.13;;;;;;;20.18;25.41;98441.22;5031796;28;20036;-59
2022/05/14 10:46:21;;;;;;;2.85;1.27;;;;;;;20.22;26.17;98457.94;5031419;28;20030;-62
2022/05/14 10:48:58;;;;;;;3.53;0.85;;;;;;;20.26;25.80;98452.88;5031234;28;20102;-61
2022/05/14 10:51:41;;;;;;;2.47;1.10;;;;;;;20.26;25.94;98461.03;5030857;28;20067;-62
2022/05/14 10:54:14;;;;;;;2.67;0.95;;;;;;;20.16;26.16;98461.53;5030515;28;20115;-60
2022/05/14 10:56:54;;;;;;;3.47;0.88;;;;;;;20.15;25.98;98449.81;5037282;28;20500;-63
2022/05/14 10:59:34;;;;;;;4.28;1.00;;;;;;;20.22;25.07;98458.75;5050752;28;20029;-60
2022/05/14 11:02:03;;;;;;;5.35;0.82;;;;;;;20.03;25.36;98452.41;5048421;28;20392;-62
2022/05/14 11:04:42;;;;;;;6.22;1.10;;;;;;;20.10;24.92;98440.66;5050088;28;20065;-63
2022/05/14 11:07:32;;;;;;;2.40;0.88;;;;;;;20.30;24.38;98438.63;5040979;28;20041;-60
2022/05/14 11:10:12;;;;;;;2.60;0.73;;;;;;;20.09;24.69;98448.00;5031619;28;20080;-60
2022/05/14 11:12:39;;;;;;;4.25;1.38;;;;;;;19.71;25.38;98446.94;5030595;28;20021;-61
2022/05/14 11:15:23;;;;;;;2.90;0.88;;;;;;;19.68;25.44;98449.25;5030871;28;20109;-62
2022/05/14 11:17:49;;;;;;;3.58;0.98;;;;;;;19.42;25.68;98445.63;5013085;28;20448;-61
2022/05/14 11:20:19;;;;;;;1.33;0.82;;;;;;;19.65;25.30;98450.50;5036221;28;20033;-61
2022/05/14 11:22:50;;;;;;;2.67;0.80;;;;;;;19.89;24.55;98446.19;5052548;28;20075;-61
2022/05/14 11:25:22;;;;;;;5.57;0.95;;;;;;;20.30;24.39;98437.81;5043776;28;20076;-60
2022/05/14 11:28:09;;;;;;;4.82;0.70;;;;;;;20.72;24.09;98431.78;5052645;28;20039;-59
2022/05/14 11:30:37;;;;;;;3.22;0.73;;;;;;;21.22;23.49;98425.41;5050671;28;20062;-61
2022/05/14 11:33:20;;;;;;;3.28;0.80;;;;;;;21.54;23.44;98427.94;5052947;28;20044;-60
2022/05/14 11:35:47;;;;;;;3.42;0.90;;;;;;;21.35;22.85;98429.84;5053492;28;20033;-63
2022/05/14 11:38:28;;;;;;;3.30;0.82;;;;;;;21.37;22.34;98422.28;5035461;28;22125;-62
2022/05/14 11:41:03;;;;;;;4.72;0.90;;;;;;;21.15;22.90;98433.66;5053199;28;20033;-60
2022/05/14 11:43:36;;;;;;;1.33;0.80;;;;;;;21.11;23.23;98437.03;5053455;28;20465;-60
2022/05/14 11:46:10;;;;;;;4.22;1.02;;;;;;;20.98;23.11;98433.44;5045444;28;20040;-61
2022/05/14 11:48:51;;;;;;;2.95;1.00;;;;;;;20.71;23.71;98447.25;5033778;28;20037;-60
2022/05/14 11:51:43;;;;;;;3.08;0.90;;;;;;;20.37;25.00;98452.16;5045812;28;20037;-61
2022/05/14 11:54:22;;;;;;;3.17;1.10;;;;;;;20.00;25.41;98452.00;5044446;28;20021;-62
2022/05/14 11:57:08;;;;;;;4.05;0.98;;;;;;;19.89;25.58;98448.06;5039616;28;20034;-61
2022/05/14 11:59:38;;;;;;;;;;;;;;;20.26;24.67;98453.72;5032959;28;20466;-60
2022/05/14 12:02:09;;;;;;;4.50;0.93;;;;;;;20.05;25.42;98454.91;5048258;28;19924;-63
2022/05/14 12:04:40;;;;;;;3.25;1.00;;;;;;;20.10;25.81;98436.06;5053045;28;20032;-62
2022/05/14 12:07:31;;;;;;;3.50;0.73;;;;;;;20.55;24.97;98453.28;5053402;28;20033;-59